Time;durP1;ratioP1;P1;durP2;ratioP2;P2;SDS_P1;SDS_P2;PMS_P1;PMS_P2;Temp;Humidity;BMP_temperature;BMP_pressure;BME280_temperature;BME280_humidity;BME280_pressure;Samples;Min_cycle;Max_cycle;Signal;HPM_P1;HPM_P2
2022/03/06 00:00:32;;;;;;;12.83;10.93;;;5.40;99.90;;;;;;5050260;28;20887;-72
2022/03/06 00:03:01;;;;;;;12.60;10.23;;;5.30;99.90;;;;;;5050250;28;20807;-71
2022/03/06 00:05:30;;;;;;;11.60;10.17;;;5.30;99.90;;;;;;5050026;28;20457;-71
2022/03/06 00:07:59;;;;;;;11.20;9.77;;;5.10;99.90;;;;;;5050174;28;21126;-71
2022/03/06 00:10:26;;;;;;;11.17;9.60;;;5.10;99.90;;;;;;5049928;28;20450;-71
2022/03/06 00:12:53;;;;;;;13.80;11.47;;;5.20;99.90;;;;;;5049976;28;20472;-70
2022/03/06 00:15:21;;;;;;;14.10;11.07;;;5.20;99.90;;;;;;5049364;28;20465;-69
2022/03/06 00:17:48;;;;;;;11.97;10.00;;;5.20;99.90;;;;;;5050000;28;20458;-71
2022/03/06 00:20:16;;;;;;;13.50;10.10;;;5.20;99.90;;;;;;5050068;28;20481;-70
2022/03/06 00:22:44;;;;;;;12.33;10.50;;;5.20;99.90;;;;;;5050025;28;20503;-71
2022/03/06 00:25:11;;;;;;;12.77;10.40;;;5.20;99.90;;;;;;5049614;28;20454;-68
2022/03/06 00:27:39;;;;;;;11.40;9.03;;;5.10;99.90;;;;;;5049471;28;20500;-71
2022/03/06 00:30:07;;;;;;;11.30;9.50;;;5.10;99.90;;;;;;5049729;28;20454;-69
2022/03/06 00:32:34;;;;;;;11.83;8.50;;;5.00;99.90;;;;;;5049209;28;20489;-70
2022/03/06 00:35:01;;;;;;;9.73;7.90;;;4.90;99.90;;;;;;5049558;28;20457;-70
2022/03/06 00:37:28;;;;;;;9.67;7.37;;;5.00;99.90;;;;;;5049637;28;20477;-68
2022/03/06 00:39:57;;;;;;;10.30;7.60;;;4.90;99.90;;;;;;5049729;28;20450;-69
2022/03/06 00:42:24;;;;;;;11.83;7.07;;;4.80;99.90;;;;;;5049397;28;20854;-69
2022/03/06 00:44:52;;;;;;;8.57;6.70;;;4.70;99.90;;;;;;5049691;28;20824;-69
2022/03/06 00:47:19;;;;;;;11.07;7.57;;;4.80;99.90;;;;;;5049556;28;20500;-69
2022/03/06 00:49:46;;;;;;;9.23;7.30;;;4.80;99.90;;;;;;5049546;28;20449;-71
2022/03/06 00:52:13;;;;;;;8.23;6.80;;;4.70;99.90;;;;;;5049556;28;20457;-70
2022/03/06 00:54:40;;;;;;;8.87;6.37;;;4.70;99.90;;;;;;5049408;28;20469;-69
2022/03/06 00:57:09;;;;;;;9.00;6.40;;;4.60;99.90;;;;;;5049531;28;20493;-71
2022/03/06 00:59:37;;;;;;;8.00;6.50;;;4.60;99.90;;;;;;5049498;28;20783;-72
2022/03/06 01:02:07;;;;;;;8.50;7.00;;;4.70;99.90;;;;;;5049467;28;20478;-69
2022/03/06 01:04:34;;;;;;;9.97;7.30;;;4.70;99.90;;;;;;5049344;28;20599;-71
2022/03/06 01:07:02;;;;;;;10.77;8.97;;;4.60;99.90;;;;;;5049497;28;20853;-71
2022/03/06 01:09:30;;;;;;;10.03;7.90;;;4.60;99.90;;;;;;5049363;28;20454;-69
2022/03/06 01:11:57;;;;;;;11.77;8.50;;;4.60;99.90;;;;;;5049333;28;20833;-70
2022/03/06 01:14:26;;;;;;;11.10;9.13;;;4.50;99.90;;;;;;5049474;28;20450;-70
2022/03/06 01:16:53;;;;;;;13.10;9.30;;;4.60;99.90;;;;;;5048991;28;20922;-69
2022/03/06 01:19:20;;;;;;;13.30;11.07;;;4.60;99.90;;;;;;5049200;28;20450;-71
2022/03/06 01:21:48;;;;;;;15.00;10.70;;;4.60;99.90;;;;;;5049146;28;20493;-71
2022/03/06 01:24:15;;;;;;;14.40;10.97;;;4.60;99.90;;;;;;5049338;28;20445;-71
2022/03/06 01:26:42;;;;;;;13.67;10.57;;;4.60;99.90;;;;;;5049217;28;20900;-71
2022/03/06 01:29:09;;;;;;;14.27;11.30;;;4.60;99.90;;;;;;5049212;28;20948;-72
2022/03/06 01:31:38;;;;;;;15.00;12.03;;;4.60;99.90;;;;;;5048624;28;20469;-69
2022/03/06 01:34:05;;;;;;;13.87;11.40;;;4.60;99.90;;;;;;5049113;28;20816;-70
2022/03/06 01:36:33;;;;;;;13.90;11.30;;;4.60;99.90;;;;;;5048885;28;20960;-68
2022/03/06 01:39:00;;;;;;;13.87;10.33;;;4.70;99.90;;;;;;5049200;28;20453;-68
2022/03/06 01:41:27;;;;;;;15.70;11.27;;;4.80;99.90;;;;;;5049206;28;20461;-71
2022/03/06 01:43:54;;;;;;;13.07;9.87;;;4.70;99.90;;;;;;5048802;28;20462;-70
2022/03/06 01:46:21;;;;;;;13.97;11.03;;;4.70;99.90;;;;;;5048784;28;20490;-70
2022/03/06 01:48:50;;;;;;;16.23;12.03;;;4.70;99.90;;;;;;5049095;28;20468;-69
2022/03/06 01:51:17;;;;;;;16.13;11.17;;;4.80;99.90;;;;;;5049027;28;20454;-69
2022/03/06 01:53:44;;;;;;;14.70;12.03;;;4.80;99.90;;;;;;5050577;28;20462;-71
2022/03/06 01:56:13;;;;;;;16.27;12.33;;;4.80;99.90;;;;;;5052159;28;20474;-70
2022/03/06 01:58:41;;;;;;;16.33;11.27;;;4.80;99.90;;;;;;5052220;28;20986;-72
2022/03/06 02:01:09;;;;;;;14.40;11.47;;;4.80;99.90;;;;;;5052616;28;20461;-69
2022/03/06 02:03:36;;;;;;;12.83;11.13;;;4.70;99.90;;;;;;5052622;28;20451;-70
2022/03/06 02:06:06;;;;;;;13.57;11.67;;;4.70;99.90;;;;;;5052194;28;20516;-70
2022/03/06 02:08:33;;;;;;;14.10;11.50;;;4.70;99.90;;;;;;5052282;28;20599;-71
2022/03/06 02:11:01;;;;;;;16.33;13.17;;;4.80;99.90;;;;;;5052148;28;20482;-71
2022/03/06 02:13:28;;;;;;;14.33;11.13;;;4.70;99.90;;;;;;5052041;28;20457;-71
2022/03/06 02:15:56;;;;;;;15.13;12.43;;;4.80;99.90;;;;;;5052144;28;20482;-70
2022/03/06 02:18:24;;;;;;;16.67;13.20;;;4.70;99.90;;;;;;5052218;28;20442;-71
2022/03/06 02:20:51;;;;;;;16.20;12.00;;;4.80;99.90;;;;;;5052402;28;20500;-72
2022/03/06 02:23:19;;;;;;;14.23;11.53;;;4.70;99.90;;;;;;5052062;28;20449;-71
2022/03/06 02:25:47;;;;;;;16.97;13.63;;;4.70;99.90;;;;;;5051844;28;20982;-73
2022/03/06 02:28:14;;;;;;;15.57;12.50;;;4.70;99.90;;;;;;5051801;28;20860;-72
2022/03/06 02:30:43;;;;;;;14.23;11.00;;;4.70;99.90;;;;;;5051990;28;20481;-71
2022/03/06 02:33:12;;;;;;;15.73;12.40;;;4.80;99.90;;;;;;5051264;28;20489;-69
2022/03/06 02:35:39;;;;;;;16.67;11.90;;;4.70;99.90;;;;;;5051989;28;20868;-71
2022/03/06 02:38:07;;;;;;;14.80;11.87;;;4.70;99.90;;;;;;5051947;28;20454;-72
2022/03/06 02:40:39;;;;;;;13.40;10.83;;;4.60;99.90;;;;;;5051557;28;20999;-71
2022/03/06 02:43:06;;;;;;;12.37;10.67;;;4.60;99.90;;;;;;5051595;28;20481;-72
2022/03/06 02:45:34;;;;;;;13.93;10.40;;;4.60;99.90;;;;;;5051627;28;20495;-72
2022/03/06 02:48:02;;;;;;;12.37;10.23;;;4.60;99.90;;;;;;5051727;28;20563;-71
2022/03/06 02:50:32;;;;;;;11.17;8.97;;;4.60;99.90;;;;;;5051589;28;20461;-71
2022/03/06 02:53:02;;;;;;;11.00;9.40;;;4.60;99.90;;;;;;5051713;28;20450;-72
2022/03/06 02:55:29;;;;;;;12.97;9.93;;;4.60;99.90;;;;;;5051434;28;20457;-73
2022/03/06 02:57:58;;;;;;;11.60;9.20;;;4.70;99.90;;;;;;5051580;28;20461;-71
2022/03/06 03:00:27;;;;;;;12.50;9.03;;;4.70;99.90;;;;;;5051735;28;20454;-71
2022/03/06 03:02:54;;;;;;;13.70;9.97;;;4.70;99.90;;;;;;5051519;28;20454;-69
2022/03/06 03:05:22;;;;;;;12.40;9.37;;;4.70;99.90;;;;;;5051080;28;20450;-71
2022/03/06 03:07:50;;;;;;;13.70;8.73;;;4.70;99.90;;;;;;5051323;28;20901;-71
2022/03/06 03:10:19;;;;;;;11.07;8.90;;;4.70;99.90;;;;;;5051436;28;20457;-72
2022/03/06 03:12:47;;;;;;;9.87;6.87;;;4.80;99.90;;;;;;5051355;28;20464;-71
2022/03/06 03:15:17;;;;;;;8.83;7.20;;;4.80;99.90;;;;;;5051328;28;20889;-72
2022/03/06 03:17:44;;;;;;;10.47;7.23;;;4.70;99.90;;;;;;5050834;28;20503;-71
2022/03/06 03:20:12;;;;;;;9.20;7.27;;;4.60;99.90;;;;;;5051282;28;20855;-72
2022/03/06 03:22:39;;;;;;;12.50;7.30;;;4.70;99.90;;;;;;5050990;28;20457;-71
2022/03/06 03:25:07;;;;;;;9.93;7.70;;;4.70;99.90;;;;;;5051193;28;20454;-72
2022/03/06 03:27:35;;;;;;;9.80;7.20;;;4.70;99.90;;;;;;5050947;28;20501;-72
2022/03/06 03:30:03;;;;;;;10.90;8.40;;;4.70;99.90;;;;;;5050915;28;20576;-71
2022/03/06 03:32:32;;;;;;;9.70;7.57;;;4.70;99.90;;;;;;5050509;28;20512;-71
2022/03/06 03:34:59;;;;;;;9.70;7.00;;;4.60;99.90;;;;;;5050739;28;20461;-69
2022/03/06 03:37:26;;;;;;;9.30;6.93;;;4.70;99.90;;;;;;5050663;28;20477;-72
2022/03/06 03:39:53;;;;;;;9.03;6.80;;;4.70;99.90;;;;;;5050428;28;20465;-72
2022/03/06 03:42:20;;;;;;;9.20;6.90;;;4.60;99.90;;;;;;5050792;28;20840;-70
2022/03/06 03:44:48;;;;;;;8.10;6.50;;;4.60;99.90;;;;;;5050787;28;20885;-70
2022/03/06 03:47:15;;;;;;;8.70;7.00;;;4.60;99.90;;;;;;5050096;28;20489;-70
2022/03/06 03:49:43;;;;;;;9.50;6.67;;;4.60;99.90;;;;;;5050666;28;20978;-71
2022/03/06 03:52:10;;;;;;;8.90;6.57;;;4.60;99.90;;;;;;5050282;28;20491;-72
2022/03/06 03:54:37;;;;;;;8.73;6.60;;;4.60;99.90;;;;;;5050685;28;20457;-69
2022/03/06 03:57:05;;;;;;;8.80;6.87;;;4.70;99.90;;;;;;5050493;28;20466;-71
2022/03/06 03:59:32;;;;;;;9.57;6.60;;;4.70;99.90;;;;;;5050144;28;20545;-70
2022/03/06 04:01:59;;;;;;;8.33;6.13;;;4.70;99.90;;;;;;5050268;28;20461;-69
2022/03/06 04:04:26;;;;;;;8.17;6.40;;;4.70;99.90;;;;;;5050240;28;20457;-71
2022/03/06 04:06:57;;;;;;;8.70;6.57;;;4.70;99.90;;;;;;5050118;28;21043;-72
2022/03/06 04:09:24;;;;;;;8.40;6.60;;;4.60;99.90;;;;;;5050214;28;20454;-71
2022/03/06 04:11:51;;;;;;;9.13;6.17;;;4.60;99.90;;;;;;5050027;28;20457;-70
2022/03/06 04:14:19;;;;;;;10.20;6.50;;;4.50;99.90;;;;;;5049845;28;20450;-70
2022/03/06 04:16:46;;;;;;;7.80;6.10;;;4.50;99.90;;;;;;5049384;28;20500;-71
2022/03/06 04:19:13;;;;;;;8.30;5.90;;;4.40;99.90;;;;;;5048623;28;20973;-71
2022/03/06 04:21:40;;;;;;;8.37;5.93;;;4.40;99.90;;;;;;5049770;28;20457;-71
2022/03/06 04:24:09;;;;;;;8.57;5.73;;;4.50;99.90;;;;;;5049898;28;20454;-72
2022/03/06 04:26:36;;;;;;;7.47;5.20;;;4.50;99.90;;;;;;5049802;28;20474;-70
2022/03/06 04:29:04;;;;;;;7.40;5.13;;;4.30;99.90;;;;;;5049258;28;20501;-71
2022/03/06 04:31:31;;;;;;;7.20;5.17;;;4.30;99.90;;;;;;5049620;28;20462;-70
2022/03/06 04:33:58;;;;;;;8.33;5.43;;;4.20;99.90;;;;;;5049767;28;20969;-70
2022/03/06 04:36:27;;;;;;;8.17;5.53;;;4.30;99.90;;;;;;5049713;28;20469;-69
2022/03/06 04:38:54;;;;;;;6.43;4.20;;;4.30;99.90;;;;;;5049634;28;20449;-70
2022/03/06 04:41:23;;;;;;;7.87;4.43;;;4.30;99.90;;;;;;5049317;28;20449;-72
2022/03/06 04:43:50;;;;;;;6.77;4.97;;;4.30;99.90;;;;;;5049750;28;20441;-71
2022/03/06 04:46:17;;;;;;;7.50;4.87;;;4.30;99.90;;;;;;5049592;28;20573;-68
2022/03/06 04:48:45;;;;;;;6.83;4.53;;;4.20;99.90;;;;;;5049535;28;20486;-71
2022/03/06 04:51:12;;;;;;;6.47;4.50;;;4.20;99.90;;;;;;5049625;28;20457;-72
2022/03/06 04:53:39;;;;;;;6.40;4.53;;;4.20;99.90;;;;;;5049281;28;21112;-70
2022/03/06 04:56:07;;;;;;;6.40;4.80;;;4.20;99.90;;;;;;5049267;28;20581;-69
2022/03/06 04:58:35;;;;;;;6.00;4.80;;;4.30;99.90;;;;;;5049387;28;20538;-71
2022/03/06 05:01:03;;;;;;;6.30;4.87;;;4.30;99.90;;;;;;5049512;28;20449;-70
2022/03/06 05:03:30;;;;;;;6.70;5.17;;;4.40;99.90;;;;;;5049451;28;20453;-70
2022/03/06 05:05:57;;;;;;;7.30;5.23;;;4.40;99.90;;;;;;5048894;28;20474;-70
2022/03/06 05:08:26;;;;;;;6.03;4.50;;;4.40;99.90;;;;;;5049272;28;20486;-73
2022/03/06 05:10:53;;;;;;;7.37;5.07;;;4.40;99.90;;;;;;5049525;28;20501;-75
2022/03/06 05:13:20;;;;;;;6.40;5.13;;;4.40;99.90;;;;;;5049171;28;20461;-73
2022/03/06 05:15:48;;;;;;;6.40;4.70;;;4.50;99.90;;;;;;5049307;28;20484;-71
2022/03/06 05:18:16;;;;;;;6.97;4.10;;;4.50;99.90;;;;;;5049389;28;20500;-70
2022/03/06 05:20:44;;;;;;;5.83;4.73;;;4.40;99.90;;;;;;5049521;28;20868;-68
2022/03/06 05:23:11;;;;;;;7.23;4.80;;;4.50;99.90;;;;;;5049276;28;20545;-70
2022/03/06 05:25:38;;;;;;;5.83;4.30;;;4.50;99.90;;;;;;5049132;28;20461;-74
2022/03/06 05:28:05;;;;;;;8.20;4.30;;;4.50;99.90;;;;;;5050455;28;20493;-75
2022/03/06 05:30:33;;;;;;;5.77;4.27;;;4.50;99.90;;;;;;5053245;28;20804;-78
2022/03/06 05:33:02;;;;;;;5.73;3.80;;;4.50;99.90;;;;;;5052505;28;20489;-77
2022/03/06 05:35:29;;;;;;;4.80;3.43;;;4.50;99.90;;;;;;5052677;28;20540;-74
2022/03/06 05:37:56;;;;;;;4.37;2.70;;;4.40;99.90;;;;;;5052925;28;20934;-72
2022/03/06 05:40:24;;;;;;;5.30;3.47;;;4.40;99.90;;;;;;5053041;28;20457;-70
2022/03/06 05:42:51;;;;;;;4.90;2.93;;;4.30;99.90;;;;;;5052762;28;20469;-71
2022/03/06 05:45:18;;;;;;;6.03;4.17;;;4.20;99.90;;;;;;5052912;28;20457;-71
2022/03/06 05:47:45;;;;;;;5.17;3.60;;;4.20;99.90;;;;;;5051632;28;20486;-73
2022/03/06 05:50:14;;;;;;;5.43;3.53;;;4.20;99.90;;;;;;5052736;28;20930;-70
2022/03/06 05:52:41;;;;;;;5.70;3.67;;;4.20;99.90;;;;;;5052875;28;20809;-73
2022/03/06 05:55:09;;;;;;;6.27;4.00;;;4.20;99.90;;;;;;5052796;28;20453;-71
2022/03/06 05:57:36;;;;;;;5.53;3.67;;;4.20;99.90;;;;;;5052553;28;21027;-69
2022/03/06 06:00:08;;;;;;;6.40;3.30;;;4.30;99.90;;;;;;5052617;28;20457;-70
2022/03/06 06:02:35;;;;;;;5.07;3.23;;;4.30;99.90;;;;;;5052167;28;20972;-69
2022/03/06 06:05:03;;;;;;;5.80;4.00;;;4.30;99.90;;;;;;5052277;28;20782;-68
2022/03/06 06:07:31;;;;;;;6.30;4.20;;;4.30;99.90;;;;;;5052291;28;20474;-70
2022/03/06 06:09:59;;;;;;;6.30;3.80;;;4.40;99.90;;;;;;5052496;28;20457;-69
2022/03/06 06:12:26;;;;;;;7.80;4.67;;;4.40;99.90;;;;;;5052295;28;20453;-71
2022/03/06 06:14:54;;;;;;;8.70;5.10;;;4.50;99.90;;;;;;5052147;28;20459;-70
2022/03/06 06:17:21;;;;;;;7.23;4.20;;;4.40;99.90;;;;;;5051860;28;20492;-69
2022/03/06 06:19:48;;;;;;;7.43;5.17;;;4.40;99.90;;;;;;5051972;28;20557;-69
2022/03/06 06:22:15;;;;;;;7.50;4.50;;;4.30;99.90;;;;;;5051746;28;20996;-70
2022/03/06 06:24:44;;;;;;;5.03;3.70;;;4.40;99.90;;;;;;5051895;28;20454;-69
2022/03/06 06:27:11;;;;;;;5.97;4.10;;;4.30;99.90;;;;;;5051814;28;20480;-68
2022/03/06 06:29:38;;;;;;;5.33;3.53;;;4.30;99.90;;;;;;5051625;28;20572;-68
2022/03/06 06:32:06;;;;;;;7.03;4.53;;;4.30;99.90;;;;;;5051488;28;20481;-69
2022/03/06 06:34:34;;;;;;;5.10;3.47;;;4.30;99.90;;;;;;5051743;28;20453;-68
2022/03/06 06:37:02;;;;;;;4.60;3.00;;;4.30;99.90;;;;;;5052051;28;20560;-68
2022/03/06 06:39:30;;;;;;;4.90;2.83;;;4.20;99.90;;;;;;5051002;28;20446;-66
2022/03/06 06:41:59;;;;;;;5.37;3.50;;;4.20;99.90;;;;;;5051337;28;20544;-67
2022/03/06 06:44:26;;;;;;;5.90;3.30;;;4.20;99.90;;;;;;5051227;28;20930;-67
2022/03/06 06:46:53;;;;;;;4.93;3.20;;;4.20;99.90;;;;;;5051470;28;20481;-67
2022/03/06 06:49:21;;;;;;;4.03;2.80;;;4.20;99.90;;;;;;5051535;28;20833;-68
2022/03/06 06:51:48;;;;;;;5.30;3.13;;;4.20;99.90;;;;;;5051938;28;20949;-67
2022/03/06 06:54:15;;;;;;;7.30;4.20;;;4.00;99.90;;;;;;5051603;28;20828;-67
2022/03/06 06:56:42;;;;;;;5.40;3.23;;;4.00;99.90;;;;;;5051219;28;20470;-68
2022/03/06 06:59:11;;;;;;;4.70;3.00;;;4.00;99.90;;;;;;5051412;28;20457;-67
2022/03/06 07:01:38;;;;;;;6.00;3.50;;;4.00;99.90;;;;;;5051224;28;20454;-69
2022/03/06 07:04:05;;;;;;;4.37;2.70;;;4.10;99.90;;;;;;5051214;28;20461;-68
2022/03/06 07:06:32;;;;;;;5.50;3.20;;;4.00;99.90;;;;;;5051260;28;20481;-67
2022/03/06 07:09:00;;;;;;;5.57;3.60;;;4.00;99.90;;;;;;5051277;28;20488;-67
2022/03/06 07:11:27;;;;;;;5.80;2.67;;;3.90;99.90;;;;;;5051379;28;20511;-68
2022/03/06 07:13:54;;;;;;;6.20;2.73;;;4.00;99.90;;;;;;5051023;28;20450;-66
2022/03/06 07:16:22;;;;;;;9.90;3.90;;;4.10;99.90;;;;;;5050582;28;21014;-68
2022/03/06 07:18:49;;;;;;;5.60;2.87;;;4.10;99.90;;;;;;5050535;28;20442;-67
2022/03/06 07:21:16;;;;;;;4.90;2.83;;;4.10;99.90;;;;;;5050977;28;20477;-68
2022/03/06 07:23:43;;;;;;;4.57;2.90;;;4.20;99.90;;;;;;5050927;28;20918;-67
2022/03/06 07:26:10;;;;;;;4.77;3.17;;;4.30;99.90;;;;;;5050761;28;20774;-68
2022/03/06 07:28:37;;;;;;;4.50;2.50;;;4.10;99.90;;;;;;5050770;28;20485;-68
2022/03/06 07:31:04;;;;;;;5.10;3.10;;;4.20;99.90;;;;;;5050808;28;20458;-68
2022/03/06 07:33:33;;;;;;;5.70;3.10;;;4.00;99.90;;;;;;5050586;28;20478;-69
2022/03/06 07:36:00;;;;;;;3.90;2.40;;;4.10;99.90;;;;;;5050708;28;21008;-66
2022/03/06 07:38:27;;;;;;;4.00;2.87;;;4.20;99.90;;;;;;5050178;28;20756;-66
2022/03/06 07:40:54;;;;;;;5.87;2.90;;;4.20;99.90;;;;;;5050413;28;20458;-66
2022/03/06 07:43:21;;;;;;;4.77;2.77;;;4.30;99.90;;;;;;5050455;28;20454;-65
2022/03/06 07:45:48;;;;;;;5.33;3.33;;;4.30;99.90;;;;;;5050512;28;20496;-68
2022/03/06 07:48:15;;;;;;;5.50;2.70;;;4.20;99.90;;;;;;5050360;28;20489;-66
2022/03/06 07:50:43;;;;;;;4.73;2.70;;;4.30;99.90;;;;;;5049482;28;20450;-68
2022/03/06 07:53:10;;;;;;;4.97;2.87;;;4.50;99.90;;;;;;5049995;28;20768;-67
2022/03/06 07:55:38;;;;;;;4.10;2.60;;;4.40;99.90;;;;;;5050041;28;20453;-67
2022/03/06 07:58:05;;;;;;;3.93;2.23;;;4.40;99.90;;;;;;5050441;28;20939;-67
2022/03/06 08:00:32;;;;;;;4.87;3.00;;;4.40;99.90;;;;;;5050534;28;20465;-68
2022/03/06 08:02:59;;;;;;;4.17;2.37;;;4.50;99.90;;;;;;5050415;28;20446;-68
2022/03/06 08:05:26;;;;;;;4.10;2.33;;;4.50;99.90;;;;;;5049882;28;20495;-69
2022/03/06 08:07:54;;;;;;;4.73;2.80;;;4.60;99.90;;;;;;5050093;28;20452;-68
2022/03/06 08:10:22;;;;;;;5.70;3.37;;;4.70;99.90;;;;;;5050250;28;20457;-68
2022/03/06 08:12:49;;;;;;;5.87;2.53;;;4.70;99.90;;;;;;5050147;28;20497;-68
2022/03/06 08:15:16;;;;;;;5.00;2.53;;;4.70;99.90;;;;;;5049978;28;20475;-67
2022/03/06 08:17:43;;;;;;;6.67;2.70;;;4.60;99.90;;;;;;5049900;28;20478;-66
2022/03/06 08:20:11;;;;;;;5.43;3.00;;;4.60;99.90;;;;;;5049561;28;20454;-66
2022/03/06 08:22:38;;;;;;;4.93;2.37;;;4.70;99.90;;;;;;5049719;28;20536;-67
2022/03/06 08:25:08;;;;;;;5.77;3.07;;;4.70;99.90;;;;;;5049737;28;20950;-67
2022/03/06 08:27:35;;;;;;;9.20;3.47;;;4.60;99.90;;;;;;5049803;28;20470;-67
2022/03/06 08:30:04;;;;;;;5.20;2.70;;;4.70;99.90;;;;;;5049580;28;20493;-67
2022/03/06 08:32:31;;;;;;;4.53;3.03;;;4.80;99.90;;;;;;5049430;28;20493;-67
2022/03/06 08:34:58;;;;;;;4.60;2.83;;;4.90;99.90;;;;;;5049446;28;20454;-67
2022/03/06 08:37:25;;;;;;;6.60;3.20;;;4.80;99.90;;;;;;5049361;28;20480;-67
2022/03/06 08:39:52;;;;;;;5.97;2.80;;;5.00;99.90;;;;;;5049604;28;20457;-67
2022/03/06 08:42:21;;;;;;;5.60;3.47;;;5.10;99.90;;;;;;5049713;28;20465;-67
2022/03/06 08:44:48;;;;;;;5.50;3.07;;;5.10;99.90;;;;;;5049659;28;20453;-68
2022/03/06 08:47:15;;;;;;;5.40;3.60;;;5.10;99.90;;;;;;5049522;28;20469;-67
2022/03/06 08:49:42;;;;;;;4.60;2.93;;;5.10;99.90;;;;;;5049698;28;20858;-67
2022/03/06 08:52:10;;;;;;;4.67;3.03;;;5.10;99.90;;;;;;5049462;28;20961;-68
2022/03/06 08:54:37;;;;;;;5.13;3.17;;;4.90;99.90;;;;;;5049551;28;20450;-70
2022/03/06 08:57:05;;;;;;;5.60;3.20;;;4.90;99.90;;;;;;5049520;28;20486;-69
2022/03/06 08:59:34;;;;;;;5.37;3.27;;;4.70;99.90;;;;;;5049688;28;20469;-69
2022/03/06 09:02:01;;;;;;;4.20;2.97;;;4.50;99.90;;;;;;5050466;28;20445;-69
2022/03/06 09:04:28;;;;;;;4.73;3.23;;;4.50;99.90;;;;;;5053741;28;20491;-69
2022/03/06 09:06:55;;;;;;;4.80;3.30;;;4.40;99.90;;;;;;5053539;28;20470;-70
2022/03/06 09:09:22;;;;;;;4.57;3.00;;;4.50;99.90;;;;;;5053660;28;20496;-67
2022/03/06 09:11:49;;;;;;;4.67;3.40;;;4.70;99.90;;;;;;5053489;28;20839;-68
2022/03/06 09:14:16;;;;;;;5.13;3.30;;;4.90;99.90;;;;;;5053063;28;20462;-69
2022/03/06 09:16:45;;;;;;;5.27;3.50;;;4.80;99.90;;;;;;5053268;28;20473;-69
2022/03/06 09:19:12;;;;;;;5.63;3.60;;;5.00;99.90;;;;;;5053286;28;20457;-69
2022/03/06 09:21:40;;;;;;;6.60;3.90;;;5.00;99.90;;;;;;5053271;28;20945;-69
2022/03/06 09:24:08;;;;;;;6.87;3.50;;;5.00;99.90;;;;;;5053288;28;20560;-68
2022/03/06 09:26:35;;;;;;;6.17;4.10;;;5.10;99.90;;;;;;5053235;28;20478;-68
2022/03/06 09:29:02;;;;;;;6.37;3.67;;;5.10;99.90;;;;;;5052975;28;20485;-66
2022/03/06 09:31:29;;;;;;;5.50;3.60;;;5.00;99.90;;;;;;5052841;28;20457;-70
2022/03/06 09:33:58;;;;;;;7.90;4.53;;;5.10;99.90;;;;;;5052894;28;20482;-68
2022/03/06 09:36:25;;;;;;;7.03;4.80;;;5.20;99.90;;;;;;5053028;28;20856;-68
2022/03/06 09:38:52;;;;;;;7.17;4.47;;;5.20;99.90;;;;;;5053060;28;20450;-70
2022/03/06 09:41:27;;;;;;;9.60;4.80;;;5.30;99.90;;;;;;5053035;28;20458;-67
2022/03/06 09:43:56;;;;;;;6.13;3.73;;;5.30;99.90;;;;;;5052886;28;20457;-70
2022/03/06 09:46:24;;;;;;;10.00;4.70;;;5.30;99.90;;;;;;5052861;28;20565;-67
2022/03/06 09:48:52;;;;;;;7.93;4.50;;;5.30;99.90;;;;;;5052771;28;20481;-68
2022/03/06 09:51:21;;;;;;;6.07;3.77;;;5.30;99.90;;;;;;5052841;28;20457;-69
2022/03/06 09:53:49;;;;;;;8.43;4.30;;;5.10;99.90;;;;;;5052877;28;20492;-69
2022/03/06 09:56:16;;;;;;;6.57;4.20;;;5.00;99.90;;;;;;5052390;28;20537;-68
2022/03/06 09:58:44;;;;;;;9.83;5.20;;;5.00;99.90;;;;;;5052660;28;20481;-70
2022/03/06 10:01:12;;;;;;;6.87;4.23;;;5.00;99.90;;;;;;5052607;28;20479;-68
2022/03/06 10:03:39;;;;;;;10.80;4.23;;;5.00;99.90;;;;;;5052490;28;20454;-70
2022/03/06 10:06:07;;;;;;;4.53;3.07;;;4.90;99.90;;;;;;5052640;28;20478;-62
2022/03/06 10:08:36;;;;;;;4.90;2.87;;;4.60;99.90;;;;;;5052335;28;20470;-67
2022/03/06 10:11:06;;;;;;;5.10;3.40;;;4.20;99.90;;;;;;5052380;28;20457;-67
2022/03/06 10:13:35;;;;;;;4.10;2.67;;;4.10;99.90;;;;;;5051219;28;20453;-67
2022/03/06 10:16:11;;;;;;;6.27;3.80;;;4.10;99.90;;;;;;5052258;28;20474;-67
2022/03/06 10:18:40;;;;;;;8.27;4.70;;;4.10;99.90;;;;;;5052225;28;20456;-68
2022/03/06 10:21:19;;;;;;;6.63;3.57;;;4.10;99.90;;;;;;5052139;28;20458;-68
2022/03/06 10:23:50;;;;;;;5.37;3.23;;;4.10;99.90;;;;;;5051837;28;20958;-68
2022/03/06 10:26:18;;;;;;;5.30;3.30;;;4.10;99.90;;;;;;5051956;28;20547;-69
2022/03/06 10:28:48;;;;;;;6.30;3.87;;;4.10;99.90;;;;;;5052204;28;20450;-74
2022/03/06 10:31:16;;;;;;;8.57;4.53;;;4.00;99.90;;;;;;5052389;28;20492;-68
2022/03/06 10:33:55;;;;;;;6.33;4.90;;;3.90;99.90;;;;;;5051371;28;20962;-68
2022/03/06 10:36:34;;;;;;;8.27;4.90;;;3.90;99.90;;;;;;5051806;28;20466;-68
2022/03/06 10:39:04;;;;;;;6.07;4.90;;;3.80;99.90;;;;;;5051504;28;20899;-68
2022/03/06 10:41:38;;;;;;;10.30;5.80;;;3.70;99.90;;;;;;5051929;28;20442;-69
2022/03/06 10:44:06;;;;;;;8.00;5.20;;;3.90;99.90;;;;;;5051863;28;20457;-68
2022/03/06 10:46:35;;;;;;;7.50;5.50;;;4.00;99.90;;;;;;5051789;28;20557;-69
2022/03/06 10:49:08;;;;;;;7.90;5.80;;;4.20;99.90;;;;;;5051752;28;20446;-70
2022/03/06 10:51:39;;;;;;;9.43;5.70;;;4.20;99.90;;;;;;5051347;28;20457;-69
2022/03/06 10:54:08;;;;;;;6.90;5.33;;;4.40;99.90;;;;;;5051557;28;20963;-69
2022/03/06 10:56:36;;;;;;;8.50;4.93;;;4.30;99.90;;;;;;5051372;28;20470;-69
2022/03/06 10:59:05;;;;;;;5.90;4.70;;;4.20;99.90;;;;;;5051983;28;20818;-69
2022/03/06 11:01:33;;;;;;;6.03;4.23;;;4.20;99.90;;;;;;5051557;28;20483;-71
2022/03/06 11:04:02;;;;;;;7.27;4.83;;;4.00;99.90;;;;;;5051551;28;20457;-68
2022/03/06 11:06:33;;;;;;;7.10;4.90;;;3.90;99.90;;;;;;5051474;28;20481;-70
2022/03/06 11:09:00;;;;;;;7.00;5.53;;;3.80;99.90;;;;;;5051128;28;20457;-71
2022/03/06 11:11:29;;;;;;;9.57;6.23;;;3.90;99.90;;;;;;5051171;28;20821;-70
2022/03/06 11:13:56;;;;;;;13.67;5.67;;;4.00;99.90;;;;;;5051241;28;20457;-67
2022/03/06 11:16:24;;;;;;;7.27;4.87;;;4.00;99.90;;;;;;5051210;28;20470;-69
2022/03/06 11:18:54;;;;;;;7.73;4.50;;;4.10;99.90;;;;;;5051073;28;20489;-68
2022/03/06 11:21:24;;;;;;;8.67;5.30;;;4.10;99.90;;;;;;5051227;28;20450;-68
2022/03/06 11:23:53;;;;;;;7.00;5.37;;;4.10;99.90;;;;;;5051093;28;21338;-69
2022/03/06 11:27:11;;;;;;;7.83;4.57;;;4.00;99.90;;;;;;5050709;28;20473;-71
2022/03/06 11:30:04;;;;;;;4.90;3.40;;;3.90;99.90;;;;;;5010403;28;20846;-71
2022/03/06 11:32:35;;;;;;;5.43;3.97;;;3.90;99.90;;;;;;5047495;28;20506;-67
2022/03/06 11:35:06;;;;;;;6.93;4.00;;;3.90;99.90;;;;;;5050972;28;20482;-68
2022/03/06 11:37:46;;;;;;;5.63;3.37;;;3.90;99.90;;;;;;5051045;28;20481;-68
2022/03/06 11:40:35;;;;;;;5.47;3.40;;;3.90;99.90;;;;;;5050600;28;20810;-69
2022/03/06 11:43:02;;;;;;;6.23;3.37;;;4.00;99.90;;;;;;5050819;28;20495;-69
2022/03/06 11:45:53;;;;;;;5.50;3.50;;;4.00;99.90;;;;;;5050670;28;20469;-69
2022/03/06 11:48:25;;;;;;;6.60;3.30;;;4.00;99.90;;;;;;5046254;28;20909;-70
2022/03/06 11:51:25;;;;;;;6.10;3.80;;;4.10;99.90;;;;;;5050404;28;20854;-70
2022/03/06 11:53:54;;;;;;;7.10;4.90;;;4.30;99.90;;;;;;5050532;28;20453;-70
2022/03/06 11:56:42;;;;;;;6.93;5.00;;;4.20;99.90;;;;;;5050238;28;20868;-67
2022/03/06 11:59:11;;;;;;;7.17;4.30;;;4.30;99.90;;;;;;5050461;28;20508;-71
2022/03/06 12:01:41;;;;;;;7.73;4.63;;;4.30;99.90;;;;;;5050394;28;20461;-71
2022/03/06 12:04:11;;;;;;;6.57;4.80;;;4.30;99.90;;;;;;5050274;28;20446;-71
2022/03/06 12:06:40;;;;;;;5.70;3.70;;;4.30;99.90;;;;;;5050259;28;20492;-72
2022/03/06 12:09:12;;;;;;;6.70;4.27;;;4.20;99.90;;;;;;5050321;28;20461;-72
2022/03/06 12:11:40;;;;;;;5.70;4.50;;;4.10;99.90;;;;;;5050098;28;20442;-74
2022/03/06 12:14:14;;;;;;;5.40;3.60;;;3.80;99.90;;;;;;5049867;28;20454;-75
2022/03/06 12:17:14;;;;;;;6.67;4.40;;;3.80;99.90;;;;;;5049501;28;20469;-72
2022/03/06 12:20:23;;;;;;;7.43;4.77;;;3.70;99.90;;;;;;5049904;28;20446;-73
2022/03/06 12:22:54;;;;;;;6.57;4.50;;;3.70;99.90;;;;;;5049799;28;20454;-73
2022/03/06 12:25:29;;;;;;;7.30;5.10;;;3.70;99.90;;;;;;5049818;28;20982;-74
2022/03/06 12:28:31;;;;;;;7.80;5.70;;;3.90;99.90;;;;;;5049897;28;20906;-73
2022/03/06 12:30:58;;;;;;;7.60;5.07;;;4.00;99.90;;;;;;5049766;28;20580;-73
2022/03/06 12:33:39;;;;;;;7.07;5.27;;;4.00;99.90;;;;;;5049580;28;20489;-74
2022/03/06 12:36:24;;;;;;;7.60;5.23;;;4.00;99.90;;;;;;5049502;28;20474;-69
2022/03/06 12:39:01;;;;;;;8.73;5.90;;;4.00;99.90;;;;;;5049624;28;20454;-67
2022/03/06 12:41:29;;;;;;;7.70;5.37;;;4.10;99.90;;;;;;5049469;28;20881;-68
2022/03/06 12:44:02;;;;;;;8.47;5.73;;;4.30;99.90;;;;;;5049695;28;20457;-69
2022/03/06 12:46:29;;;;;;;6.57;4.80;;;4.30;99.90;;;;;;5049743;28;20465;-68
2022/03/06 12:48:56;;;;;;;8.07;5.53;;;4.40;99.90;;;;;;5049832;28;20461;-67
2022/03/06 12:51:37;;;;;;;6.20;4.07;;;4.40;99.90;;;;;;5049367;28;20481;-69
2022/03/06 12:54:16;;;;;;;7.40;6.00;;;4.50;99.90;;;;;;5049601;28;20464;-69
2022/03/06 12:56:43;;;;;;;6.97;5.23;;;4.30;99.90;;;;;;5049576;28;20516;-69
2022/03/06 12:59:16;;;;;;;6.97;5.17;;;4.40;99.90;;;;;;5049568;28;20441;-69
2022/03/06 13:01:45;;;;;;;6.60;4.73;;;4.40;99.90;;;;;;5049668;28;20462;-70